sensor_id;sensor_type;location;lat;lon;timestamp;P1;durP1;ratioP1;P2;durP2;ratioP2
35981;SDS011;22058;0.000;0.000;2023-07-22T00:01:02;2.42;;;2.22;;
35981;SDS011;22058;0.000;0.000;2023-07-22T00:03:28;4.28;;;2.50;;
35981;SDS011;22058;0.000;0.000;2023-07-22T00:06:07;2.35;;;2.25;;
35981;SDS011;22058;0.000;0.000;2023-07-22T00:08:33;2.53;;;2.33;;
35981;SDS011;22058;0.000;0.000;2023-07-22T00:11:00;4.63;;;2.47;;
35981;SDS011;22058;0.000;0.000;2023-07-22T00:13:26;2.60;;;2.40;;
35981;SDS011;22058;0.000;0.000;2023-07-22T00:15:53;2.65;;;2.45;;
35981;SDS011;22058;0.000;0.000;2023-07-22T00:18:19;3.78;;;3.47;;
35981;SDS011;22058;0.000;0.000;2023-07-22T00:20:45;2.92;;;2.72;;
35981;SDS011;22058;0.000;0.000;2023-07-22T00:23:11;4.70;;;3.03;;
35981;SDS011;22058;0.000;0.000;2023-07-22T00:25:38;2.67;;;2.47;;
35981;SDS011;22058;0.000;0.000;2023-07-22T00:28:04;4.05;;;2.55;;
35981;SDS011;22058;0.000;0.000;2023-07-22T00:30:30;2.25;;;2.13;;
35981;SDS011;22058;0.000;0.000;2023-07-22T00:32:56;3.15;;;2.72;;
35981;SDS011;22058;0.000;0.000;2023-07-22T00:35:22;4.25;;;2.38;;
35981;SDS011;22058;0.000;0.000;2023-07-22T00:37:48;3.42;;;2.40;;
35981;SDS011;22058;0.000;0.000;2023-07-22T00:40:15;3.05;;;2.50;;
35981;SDS011;22058;0.000;0.000;2023-07-22T00:42:42;2.15;;;2.00;;
35981;SDS011;22058;0.000;0.000;2023-07-22T00:45:08;2.70;;;2.30;;
35981;SDS011;22058;0.000;0.000;2023-07-22T00:47:35;3.30;;;2.78;;
35981;SDS011;22058;0.000;0.000;2023-07-22T00:50:05;2.55;;;2.35;;
35981;SDS011;22058;0.000;0.000;2023-07-22T00:52:35;2.97;;;2.75;;
35981;SDS011;22058;0.000;0.000;2023-07-22T00:55:02;2.30;;;2.10;;
35981;SDS011;22058;0.000;0.000;2023-07-22T00:57:28;3.13;;;2.25;;
35981;SDS011;22058;0.000;0.000;2023-07-22T00:59:54;2.65;;;2.28;;
35981;SDS011;22058;0.000;0.000;2023-07-22T01:02:21;2.35;;;2.10;;
35981;SDS011;22058;0.000;0.000;2023-07-22T01:04:48;2.80;;;2.60;;
35981;SDS011;22058;0.000;0.000;2023-07-22T01:07:15;3.13;;;2.60;;
35981;SDS011;22058;0.000;0.000;2023-07-22T01:09:41;4.10;;;2.38;;
35981;SDS011;22058;0.000;0.000;2023-07-22T01:12:08;2.78;;;2.58;;
35981;SDS011;22058;0.000;0.000;2023-07-22T01:14:35;3.55;;;2.65;;
35981;SDS011;22058;0.000;0.000;2023-07-22T01:17:02;2.45;;;2.28;;
35981;SDS011;22058;0.000;0.000;2023-07-22T01:19:29;2.95;;;2.65;;
35981;SDS011;22058;0.000;0.000;2023-07-22T01:21:56;7.47;;;2.85;;
35981;SDS011;22058;0.000;0.000;2023-07-22T01:24:22;2.70;;;2.20;;
35981;SDS011;22058;0.000;0.000;2023-07-22T01:26:48;2.65;;;2.42;;
35981;SDS011;22058;0.000;0.000;2023-07-22T01:29:14;2.85;;;2.40;;
35981;SDS011;22058;0.000;0.000;2023-07-22T01:31:40;3.03;;;2.67;;
35981;SDS011;22058;0.000;0.000;2023-07-22T01:34:07;3.20;;;2.80;;
35981;SDS011;22058;0.000;0.000;2023-07-22T01:36:33;4.13;;;2.00;;
35981;SDS011;22058;0.000;0.000;2023-07-22T01:38:59;3.03;;;2.83;;
35981;SDS011;22058;0.000;0.000;2023-07-22T01:41:25;2.53;;;2.33;;
35981;SDS011;22058;0.000;0.000;2023-07-22T01:43:51;3.03;;;2.22;;
35981;SDS011;22058;0.000;0.000;2023-07-22T01:46:17;2.55;;;2.30;;
35981;SDS011;22058;0.000;0.000;2023-07-22T01:48:44;2.75;;;2.50;;
35981;SDS011;22058;0.000;0.000;2023-07-22T01:51:10;2.55;;;2.38;;
35981;SDS011;22058;0.000;0.000;2023-07-22T01:53:36;3.50;;;2.30;;
35981;SDS011;22058;0.000;0.000;2023-07-22T01:56:02;2.58;;;2.38;;
35981;SDS011;22058;0.000;0.000;2023-07-22T01:58:30;4.75;;;2.90;;
35981;SDS011;22058;0.000;0.000;2023-07-22T02:00:56;2.85;;;2.55;;
35981;SDS011;22058;0.000;0.000;2023-07-22T02:03:22;2.47;;;2.38;;
35981;SDS011;22058;0.000;0.000;2023-07-22T02:05:48;2.50;;;2.30;;
35981;SDS011;22058;0.000;0.000;2023-07-22T02:08:14;2.55;;;2.35;;
35981;SDS011;22058;0.000;0.000;2023-07-22T02:10:40;2.75;;;2.55;;
35981;SDS011;22058;0.000;0.000;2023-07-22T02:13:06;2.55;;;2.35;;
35981;SDS011;22058;0.000;0.000;2023-07-22T02:15:32;3.20;;;2.60;;
35981;SDS011;22058;0.000;0.000;2023-07-22T02:17:59;2.15;;;2.05;;
35981;SDS011;22058;0.000;0.000;2023-07-22T02:20:26;2.42;;;2.33;;
35981;SDS011;22058;0.000;0.000;2023-07-22T02:22:54;2.20;;;2.10;;
35981;SDS011;22058;0.000;0.000;2023-07-22T02:25:20;2.72;;;2.45;;
35981;SDS011;22058;0.000;0.000;2023-07-22T02:27:47;2.72;;;2.53;;
35981;SDS011;22058;0.000;0.000;2023-07-22T02:30:13;2.00;;;1.90;;
35981;SDS011;22058;0.000;0.000;2023-07-22T02:32:39;2.88;;;2.50;;
35981;SDS011;22058;0.000;0.000;2023-07-22T02:35:06;2.13;;;2.03;;
35981;SDS011;22058;0.000;0.000;2023-07-22T02:37:33;2.58;;;2.38;;
35981;SDS011;22058;0.000;0.000;2023-07-22T02:39:59;2.65;;;2.45;;
35981;SDS011;22058;0.000;0.000;2023-07-22T02:42:25;2.75;;;2.55;;
35981;SDS011;22058;0.000;0.000;2023-07-22T02:44:51;2.92;;;2.33;;
35981;SDS011;22058;0.000;0.000;2023-07-22T02:47:18;3.05;;;2.67;;
35981;SDS011;22058;0.000;0.000;2023-07-22T02:49:44;3.30;;;2.22;;
35981;SDS011;22058;0.000;0.000;2023-07-22T02:52:10;2.67;;;2.47;;
35981;SDS011;22058;0.000;0.000;2023-07-22T02:54:39;2.47;;;2.28;;
35981;SDS011;22058;0.000;0.000;2023-07-22T02:57:06;2.92;;;2.72;;
35981;SDS011;22058;0.000;0.000;2023-07-22T02:59:32;2.70;;;2.50;;
35981;SDS011;22058;0.000;0.000;2023-07-22T03:01:58;2.85;;;2.53;;
35981;SDS011;22058;0.000;0.000;2023-07-22T03:04:24;2.80;;;2.60;;
35981;SDS011;22058;0.000;0.000;2023-07-22T03:06:51;2.17;;;2.08;;
35981;SDS011;22058;0.000;0.000;2023-07-22T03:09:17;2.55;;;2.35;;
35981;SDS011;22058;0.000;0.000;2023-07-22T03:11:43;2.40;;;2.20;;
35981;SDS011;22058;0.000;0.000;2023-07-22T03:14:09;3.13;;;2.85;;
35981;SDS011;22058;0.000;0.000;2023-07-22T03:16:35;2.63;;;2.42;;
35981;SDS011;22058;0.000;0.000;2023-07-22T03:19:01;3.22;;;2.88;;
35981;SDS011;22058;0.000;0.000;2023-07-22T03:21:27;3.00;;;2.80;;
35981;SDS011;22058;0.000;0.000;2023-07-22T03:23:54;2.72;;;2.63;;
35981;SDS011;22058;0.000;0.000;2023-07-22T03:26:20;2.42;;;2.22;;
35981;SDS011;22058;0.000;0.000;2023-07-22T03:28:46;3.10;;;2.55;;
35981;SDS011;22058;0.000;0.000;2023-07-22T03:31:13;2.42;;;2.22;;
35981;SDS011;22058;0.000;0.000;2023-07-22T03:33:39;2.70;;;2.50;;
35981;SDS011;22058;0.000;0.000;2023-07-22T03:36:06;2.60;;;2.40;;
35981;SDS011;22058;0.000;0.000;2023-07-22T03:38:32;2.58;;;2.38;;
35981;SDS011;22058;0.000;0.000;2023-07-22T03:40:58;2.70;;;2.50;;
35981;SDS011;22058;0.000;0.000;2023-07-22T03:43:24;2.60;;;2.40;;
35981;SDS011;22058;0.000;0.000;2023-07-22T03:45:50;2.83;;;2.63;;
35981;SDS011;22058;0.000;0.000;2023-07-22T03:48:16;3.20;;;2.38;;
35981;SDS011;22058;0.000;0.000;2023-07-22T03:50:43;2.55;;;2.35;;
35981;SDS011;22058;0.000;0.000;2023-07-22T03:53:09;2.75;;;2.55;;
35981;SDS011;22058;0.000;0.000;2023-07-22T03:55:35;2.55;;;2.35;;
35981;SDS011;22058;0.000;0.000;2023-07-22T03:58:01;2.40;;;2.30;;
35981;SDS011;22058;0.000;0.000;2023-07-22T04:00:27;2.75;;;2.55;;
35981;SDS011;22058;0.000;0.000;2023-07-22T04:02:53;2.50;;;2.30;;
35981;SDS011;22058;0.000;0.000;2023-07-22T04:05:19;2.85;;;2.65;;
35981;SDS011;22058;0.000;0.000;2023-07-22T04:07:45;3.33;;;3.03;;
35981;SDS011;22058;0.000;0.000;2023-07-22T04:10:11;2.17;;;2.08;;
35981;SDS011;22058;0.000;0.000;2023-07-22T04:12:38;2.70;;;2.45;;
35981;SDS011;22058;0.000;0.000;2023-07-22T04:15:04;2.42;;;2.33;;
35981;SDS011;22058;0.000;0.000;2023-07-22T04:17:30;2.42;;;2.28;;
35981;SDS011;22058;0.000;0.000;2023-07-22T04:19:56;2.40;;;2.28;;
35981;SDS011;22058;0.000;0.000;2023-07-22T04:22:22;2.35;;;2.20;;
35981;SDS011;22058;0.000;0.000;2023-07-22T04:24:48;2.55;;;2.35;;
35981;SDS011;22058;0.000;0.000;2023-07-22T04:27:15;2.60;;;2.40;;
35981;SDS011;22058;0.000;0.000;2023-07-22T04:29:41;2.28;;;2.08;;
35981;SDS011;22058;0.000;0.000;2023-07-22T04:32:07;2.40;;;2.30;;
35981;SDS011;22058;0.000;0.000;2023-07-22T04:34:33;2.38;;;2.17;;
35981;SDS011;22058;0.000;0.000;2023-07-22T04:36:59;2.30;;;2.10;;
35981;SDS011;22058;0.000;0.000;2023-07-22T04:39:26;2.40;;;2.30;;
35981;SDS011;22058;0.000;0.000;2023-07-22T04:41:53;2.25;;;2.15;;
35981;SDS011;22058;0.000;0.000;2023-07-22T04:44:19;2.10;;;2.00;;
35981;SDS011;22058;0.000;0.000;2023-07-22T04:46:46;2.03;;;1.92;;
35981;SDS011;22058;0.000;0.000;2023-07-22T04:49:12;2.67;;;2.47;;
35981;SDS011;22058;0.000;0.000;2023-07-22T04:51:39;2.78;;;2.35;;
35981;SDS011;22058;0.000;0.000;2023-07-22T04:54:05;2.25;;;2.15;;
35981;SDS011;22058;0.000;0.000;2023-07-22T04:56:31;2.85;;;2.65;;
35981;SDS011;22058;0.000;0.000;2023-07-22T04:58:58;2.67;;;2.58;;
35981;SDS011;22058;0.000;0.000;2023-07-22T05:01:24;2.75;;;2.63;;
35981;SDS011;22058;0.000;0.000;2023-07-22T05:03:50;2.47;;;2.28;;
35981;SDS011;22058;0.000;0.000;2023-07-22T05:06:20;2.50;;;2.35;;
35981;SDS011;22058;0.000;0.000;2023-07-22T05:08:46;2.70;;;2.30;;
35981;SDS011;22058;0.000;0.000;2023-07-22T05:11:12;3.20;;;2.90;;
35981;SDS011;22058;0.000;0.000;2023-07-22T05:13:38;1.90;;;1.80;;
35981;SDS011;22058;0.000;0.000;2023-07-22T05:16:04;2.95;;;2.30;;
35981;SDS011;22058;0.000;0.000;2023-07-22T05:18:30;2.60;;;2.40;;
35981;SDS011;22058;0.000;0.000;2023-07-22T05:20:57;2.70;;;2.50;;
35981;SDS011;22058;0.000;0.000;2023-07-22T05:23:23;4.97;;;2.45;;
35981;SDS011;22058;0.000;0.000;2023-07-22T05:25:52;2.60;;;2.38;;
35981;SDS011;22058;0.000;0.000;2023-07-22T05:28:18;2.63;;;2.50;;
35981;SDS011;22058;0.000;0.000;2023-07-22T05:30:45;2.88;;;2.67;;
35981;SDS011;22058;0.000;0.000;2023-07-22T05:33:11;2.20;;;2.10;;
35981;SDS011;22058;0.000;0.000;2023-07-22T05:35:37;2.72;;;2.40;;
35981;SDS011;22058;0.000;0.000;2023-07-22T05:38:03;2.70;;;2.50;;
35981;SDS011;22058;0.000;0.000;2023-07-22T05:40:30;2.50;;;2.40;;
35981;SDS011;22058;0.000;0.000;2023-07-22T05:42:56;2.63;;;2.42;;
35981;SDS011;22058;0.000;0.000;2023-07-22T05:45:22;3.22;;;2.92;;
35981;SDS011;22058;0.000;0.000;2023-07-22T05:47:48;2.45;;;2.25;;
35981;SDS011;22058;0.000;0.000;2023-07-22T05:50:14;2.72;;;2.53;;
35981;SDS011;22058;0.000;0.000;2023-07-22T05:52:40;2.50;;;2.30;;
35981;SDS011;22058;0.000;0.000;2023-07-22T05:55:07;2.60;;;2.50;;
35981;SDS011;22058;0.000;0.000;2023-07-22T05:57:33;2.75;;;2.55;;
35981;SDS011;22058;0.000;0.000;2023-07-22T06:00:00;2.65;;;2.45;;
35981;SDS011;22058;0.000;0.000;2023-07-22T06:02:27;2.72;;;2.53;;
35981;SDS011;22058;0.000;0.000;2023-07-22T06:04:53;4.32;;;2.47;;
35981;SDS011;22058;0.000;0.000;2023-07-22T06:07:19;2.78;;;2.58;;
35981;SDS011;22058;0.000;0.000;2023-07-22T06:09:45;3.00;;;2.50;;
35981;SDS011;22058;0.000;0.000;2023-07-22T06:12:11;2.67;;;2.50;;
35981;SDS011;22058;0.000;0.000;2023-07-22T06:14:38;2.80;;;2.60;;
35981;SDS011;22058;0.000;0.000;2023-07-22T06:17:04;3.08;;;2.88;;
35981;SDS011;22058;0.000;0.000;2023-07-22T06:19:30;4.05;;;3.13;;
35981;SDS011;22058;0.000;0.000;2023-07-22T06:21:56;2.80;;;2.60;;
35981;SDS011;22058;0.000;0.000;2023-07-22T06:24:22;2.72;;;2.53;;
35981;SDS011;22058;0.000;0.000;2023-07-22T06:26:48;2.88;;;2.67;;
35981;SDS011;22058;0.000;0.000;2023-07-22T06:29:14;2.83;;;2.63;;
35981;SDS011;22058;0.000;0.000;2023-07-22T06:31:40;2.63;;;2.42;;
35981;SDS011;22058;0.000;0.000;2023-07-22T06:34:07;2.67;;;2.47;;
35981;SDS011;22058;0.000;0.000;2023-07-22T06:36:33;2.72;;;2.53;;
35981;SDS011;22058;0.000;0.000;2023-07-22T06:38:59;3.13;;;2.80;;
35981;SDS011;22058;0.000;0.000;2023-07-22T06:41:25;3.63;;;2.47;;
35981;SDS011;22058;0.000;0.000;2023-07-22T06:43:51;2.85;;;2.60;;
35981;SDS011;22058;0.000;0.000;2023-07-22T06:46:17;3.10;;;2.58;;
35981;SDS011;22058;0.000;0.000;2023-07-22T06:48:43;3.10;;;2.90;;
35981;SDS011;22058;0.000;0.000;2023-07-22T06:51:09;2.25;;;2.15;;
35981;SDS011;22058;0.000;0.000;2023-07-22T06:53:35;2.70;;;2.50;;
35981;SDS011;22058;0.000;0.000;2023-07-22T06:56:02;3.15;;;2.85;;
35981;SDS011;22058;0.000;0.000;2023-07-22T06:58:28;3.33;;;3.13;;
35981;SDS011;22058;0.000;0.000;2023-07-22T07:00:54;2.58;;;2.45;;
35981;SDS011;22058;0.000;0.000;2023-07-22T07:03:21;2.72;;;2.53;;
35981;SDS011;22058;0.000;0.000;2023-07-22T07:05:53;2.88;;;2.63;;
35981;SDS011;22058;0.000;0.000;2023-07-22T07:08:20;2.88;;;2.67;;
35981;SDS011;22058;0.000;0.000;2023-07-22T07:10:46;2.65;;;2.45;;
35981;SDS011;22058;0.000;0.000;2023-07-22T07:13:12;3.25;;;2.97;;
35981;SDS011;22058;0.000;0.000;2023-07-22T07:15:39;3.00;;;2.80;;
35981;SDS011;22058;0.000;0.000;2023-07-22T07:18:05;3.05;;;2.85;;
35981;SDS011;22058;0.000;0.000;2023-07-22T07:20:31;2.90;;;2.70;;
35981;SDS011;22058;0.000;0.000;2023-07-22T07:22:57;4.70;;;2.28;;
35981;SDS011;22058;0.000;0.000;2023-07-22T07:25:23;3.28;;;3.08;;
35981;SDS011;22058;0.000;0.000;2023-07-22T07:27:49;2.45;;;2.25;;
35981;SDS011;22058;0.000;0.000;2023-07-22T07:30:15;3.00;;;2.63;;
35981;SDS011;22058;0.000;0.000;2023-07-22T07:32:41;3.10;;;2.90;;
35981;SDS011;22058;0.000;0.000;2023-07-22T07:35:08;5.43;;;2.65;;
35981;SDS011;22058;0.000;0.000;2023-07-22T07:37:34;3.05;;;2.80;;
35981;SDS011;22058;0.000;0.000;2023-07-22T07:40:00;2.90;;;2.70;;
35981;SDS011;22058;0.000;0.000;2023-07-22T07:42:26;2.90;;;2.70;;
35981;SDS011;22058;0.000;0.000;2023-07-22T07:44:52;2.70;;;2.45;;
35981;SDS011;22058;0.000;0.000;2023-07-22T07:47:19;2.80;;;2.60;;
35981;SDS011;22058;0.000;0.000;2023-07-22T07:49:45;2.75;;;2.65;;
35981;SDS011;22058;0.000;0.000;2023-07-22T07:52:11;2.67;;;2.47;;
35981;SDS011;22058;0.000;0.000;2023-07-22T07:54:37;3.72;;;2.83;;
35981;SDS011;22058;0.000;0.000;2023-07-22T07:57:04;2.40;;;2.30;;
35981;SDS011;22058;0.000;0.000;2023-07-22T07:59:30;2.42;;;2.33;;
35981;SDS011;22058;0.000;0.000;2023-07-22T08:01:56;2.67;;;2.47;;
35981;SDS011;22058;0.000;0.000;2023-07-22T08:04:22;2.67;;;2.50;;
35981;SDS011;22058;0.000;0.000;2023-07-22T08:06:48;2.60;;;2.40;;
35981;SDS011;22058;0.000;0.000;2023-07-22T08:09:15;2.83;;;2.63;;
35981;SDS011;22058;0.000;0.000;2023-07-22T08:11:45;2.28;;;2.17;;
35981;SDS011;22058;0.000;0.000;2023-07-22T08:14:11;2.72;;;2.53;;
35981;SDS011;22058;0.000;0.000;2023-07-22T08:16:37;3.30;;;2.67;;
35981;SDS011;22058;0.000;0.000;2023-07-22T08:19:03;2.47;;;2.38;;
35981;SDS011;22058;0.000;0.000;2023-07-22T08:21:29;2.90;;;2.70;;
35981;SDS011;22058;0.000;0.000;2023-07-22T08:23:55;2.80;;;2.58;;
35981;SDS011;22058;0.000;0.000;2023-07-22T08:26:22;2.78;;;2.50;;
35981;SDS011;22058;0.000;0.000;2023-07-22T08:28:49;2.10;;;2.00;;
35981;SDS011;22058;0.000;0.000;2023-07-22T08:31:15;2.13;;;2.03;;
35981;SDS011;22058;0.000;0.000;2023-07-22T08:33:41;2.83;;;2.70;;
35981;SDS011;22058;0.000;0.000;2023-07-22T08:36:08;2.33;;;2.15;;
35981;SDS011;22058;0.000;0.000;2023-07-22T08:38:34;3.33;;;2.35;;
35981;SDS011;22058;0.000;0.000;2023-07-22T08:41:00;2.67;;;2.47;;
35981;SDS011;22058;0.000;0.000;2023-07-22T08:43:27;2.78;;;2.55;;
35981;SDS011;22058;0.000;0.000;2023-07-22T08:45:53;2.83;;;2.63;;
35981;SDS011;22058;0.000;0.000;2023-07-22T08:48:21;2.75;;;2.13;;
35981;SDS011;22058;0.000;0.000;2023-07-22T08:53:13;2.33;;;2.22;;
35981;SDS011;22058;0.000;0.000;2023-07-22T08:55:41;2.22;;;2.13;;
35981;SDS011;22058;0.000;0.000;2023-07-22T08:58:10;2.90;;;2.70;;
35981;SDS011;22058;0.000;0.000;2023-07-22T09:00:38;2.40;;;2.30;;
35981;SDS011;22058;0.000;0.000;2023-07-22T09:03:04;2.72;;;2.53;;
35981;SDS011;22058;0.000;0.000;2023-07-22T09:05:31;3.17;;;2.97;;
35981;SDS011;22058;0.000;0.000;2023-07-22T09:07:58;2.42;;;2.22;;
35981;SDS011;22058;0.000;0.000;2023-07-22T09:10:24;2.80;;;2.60;;
35981;SDS011;22058;0.000;0.000;2023-07-22T09:12:52;2.78;;;2.35;;
35981;SDS011;22058;0.000;0.000;2023-07-22T09:15:19;2.85;;;2.70;;
35981;SDS011;22058;0.000;0.000;2023-07-22T09:17:46;2.45;;;2.33;;
35981;SDS011;22058;0.000;0.000;2023-07-22T09:20:13;2.38;;;2.28;;
35981;SDS011;22058;0.000;0.000;2023-07-22T09:22:49;2.55;;;2.45;;
35981;SDS011;22058;0.000;0.000;2023-07-22T09:27:42;3.58;;;3.30;;
35981;SDS011;22058;0.000;0.000;2023-07-22T09:30:24;2.20;;;2.10;;
35981;SDS011;22058;0.000;0.000;2023-07-22T09:32:51;2.85;;;2.63;;
35981;SDS011;22058;0.000;0.000;2023-07-22T09:35:18;2.75;;;2.55;;
35981;SDS011;22058;0.000;0.000;2023-07-22T09:37:44;2.83;;;2.63;;
35981;SDS011;22058;0.000;0.000;2023-07-22T09:40:14;2.42;;;2.25;;
35981;SDS011;22058;0.000;0.000;2023-07-22T09:42:52;3.03;;;2.83;;
35981;SDS011;22058;0.000;0.000;2023-07-22T09:45:20;2.40;;;2.30;;
35981;SDS011;22058;0.000;0.000;2023-07-22T09:47:47;2.75;;;2.55;;
35981;SDS011;22058;0.000;0.000;2023-07-22T09:52:44;2.75;;;2.65;;
35981;SDS011;22058;0.000;0.000;2023-07-22T09:55:11;2.20;;;2.10;;
35981;SDS011;22058;0.000;0.000;2023-07-22T09:57:38;3.00;;;2.83;;
35981;SDS011;22058;0.000;0.000;2023-07-22T10:00:07;3.10;;;2.90;;
35981;SDS011;22058;0.000;0.000;2023-07-22T10:02:34;2.80;;;2.60;;
35981;SDS011;22058;0.000;0.000;2023-07-22T10:05:01;3.15;;;2.95;;
35981;SDS011;22058;0.000;0.000;2023-07-22T10:07:29;3.00;;;2.75;;
35981;SDS011;22058;0.000;0.000;2023-07-22T10:09:55;3.72;;;3.00;;
35981;SDS011;22058;0.000;0.000;2023-07-22T10:12:22;3.10;;;2.90;;
35981;SDS011;22058;0.000;0.000;2023-07-22T10:14:49;2.88;;;2.67;;
35981;SDS011;22058;0.000;0.000;2023-07-22T10:17:16;2.90;;;2.70;;
35981;SDS011;22058;0.000;0.000;2023-07-22T10:19:42;3.17;;;2.97;;
35981;SDS011;22058;0.000;0.000;2023-07-22T10:22:09;3.30;;;3.10;;
35981;SDS011;22058;0.000;0.000;2023-07-22T10:24:35;2.50;;;2.35;;
35981;SDS011;22058;0.000;0.000;2023-07-22T10:27:02;2.80;;;2.60;;
35981;SDS011;22058;0.000;0.000;2023-07-22T10:29:28;2.95;;;2.75;;
35981;SDS011;22058;0.000;0.000;2023-07-22T10:31:55;3.28;;;3.05;;
35981;SDS011;22058;0.000;0.000;2023-07-22T10:34:21;4.00;;;2.38;;
35981;SDS011;22058;0.000;0.000;2023-07-22T10:36:47;3.15;;;2.95;;
35981;SDS011;22058;0.000;0.000;2023-07-22T10:39:24;2.95;;;2.85;;
35981;SDS011;22058;0.000;0.000;2023-07-22T10:41:57;2.58;;;2.38;;
35981;SDS011;22058;0.000;0.000;2023-07-22T10:44:25;2.85;;;2.65;;
35981;SDS011;22058;0.000;0.000;2023-07-22T10:46:57;3.72;;;3.42;;
35981;SDS011;22058;0.000;0.000;2023-07-22T10:49:24;2.72;;;2.63;;
35981;SDS011;22058;0.000;0.000;2023-07-22T10:51:53;2.65;;;2.55;;
35981;SDS011;22058;0.000;0.000;2023-07-22T10:54:32;3.08;;;2.88;;
35981;SDS011;22058;0.000;0.000;2023-07-22T10:57:34;3.20;;;3.00;;
35981;SDS011;22058;0.000;0.000;2023-07-22T10:59:54;3.20;;;3.00;;
35981;SDS011;22058;0.000;0.000;2023-07-22T11:02:28;4.10;;;3.70;;
35981;SDS011;22058;0.000;0.000;2023-07-22T11:04:58;4.03;;;3.70;;
35981;SDS011;22058;0.000;0.000;2023-07-22T11:07:34;6.22;;;3.80;;
35981;SDS011;22058;0.000;0.000;2023-07-22T11:10:14;3.35;;;3.05;;
35981;SDS011;22058;0.000;0.000;2023-07-22T11:12:42;3.10;;;2.90;;
35981;SDS011;22058;0.000;0.000;2023-07-22T11:15:09;2.97;;;2.78;;
35981;SDS011;22058;0.000;0.000;2023-07-22T11:17:35;3.67;;;3.45;;
35981;SDS011;22058;0.000;0.000;2023-07-22T11:20:03;3.60;;;3.22;;
35981;SDS011;22058;0.000;0.000;2023-07-22T11:22:29;3.80;;;3.60;;
35981;SDS011;22058;0.000;0.000;2023-07-22T11:24:55;6.55;;;4.57;;
35981;SDS011;22058;0.000;0.000;2023-07-22T11:27:23;3.80;;;3.50;;
35981;SDS011;22058;0.000;0.000;2023-07-22T11:29:49;3.47;;;3.17;;
35981;SDS011;22058;0.000;0.000;2023-07-22T11:32:16;4.07;;;3.60;;
35981;SDS011;22058;0.000;0.000;2023-07-22T11:34:43;4.35;;;3.97;;
35981;SDS011;22058;0.000;0.000;2023-07-22T11:37:13;4.75;;;4.35;;
35981;SDS011;22058;0.000;0.000;2023-07-22T11:39:40;5.53;;;3.85;;
35981;SDS011;22058;0.000;0.000;2023-07-22T11:42:07;3.88;;;3.58;;
35981;SDS011;22058;0.000;0.000;2023-07-22T11:44:33;4.07;;;3.65;;
35981;SDS011;22058;0.000;0.000;2023-07-22T11:49:32;4.28;;;3.35;;
35981;SDS011;22058;0.000;0.000;2023-07-22T11:52:00;3.70;;;2.83;;
35981;SDS011;22058;0.000;0.000;2023-07-22T11:54:27;3.63;;;2.80;;
35981;SDS011;22058;0.000;0.000;2023-07-22T11:56:54;3.28;;;2.97;;
35981;SDS011;22058;0.000;0.000;2023-07-22T11:59:33;4.10;;;3.80;;
35981;SDS011;22058;0.000;0.000;2023-07-22T12:01:59;3.40;;;3.20;;
35981;SDS011;22058;0.000;0.000;2023-07-22T12:04:26;4.07;;;3.30;;
35981;SDS011;22058;0.000;0.000;2023-07-22T12:06:53;3.03;;;2.83;;
35981;SDS011;22058;0.000;0.000;2023-07-22T12:09:19;3.45;;;3.25;;
35981;SDS011;22058;0.000;0.000;2023-07-22T12:11:45;3.70;;;3.42;;
35981;SDS011;22058;0.000;0.000;2023-07-22T12:14:14;3.30;;;3.10;;
35981;SDS011;22058;0.000;0.000;2023-07-22T12:16:40;3.00;;;2.90;;
35981;SDS011;22058;0.000;0.000;2023-07-22T12:19:08;3.08;;;2.80;;
35981;SDS011;22058;0.000;0.000;2023-07-22T12:21:34;3.38;;;3.17;;
35981;SDS011;22058;0.000;0.000;2023-07-22T12:24:01;3.00;;;2.90;;
35981;SDS011;22058;0.000;0.000;2023-07-22T12:26:29;3.40;;;3.10;;
35981;SDS011;22058;0.000;0.000;2023-07-22T12:28:55;3.78;;;3.47;;
35981;SDS011;22058;0.000;0.000;2023-07-22T12:31:21;3.40;;;3.10;;
35981;SDS011;22058;0.000;0.000;2023-07-22T12:33:47;3.30;;;3.10;;
35981;SDS011;22058;0.000;0.000;2023-07-22T12:36:13;4.28;;;4.07;;
35981;SDS011;22058;0.000;0.000;2023-07-22T12:38:39;3.25;;;3.05;;
35981;SDS011;22058;0.000;0.000;2023-07-22T12:41:05;3.60;;;3.30;;
35981;SDS011;22058;0.000;0.000;2023-07-22T12:43:32;3.28;;;3.08;;
35981;SDS011;22058;0.000;0.000;2023-07-22T12:45:58;2.90;;;2.80;;
35981;SDS011;22058;0.000;0.000;2023-07-22T12:48:24;3.55;;;3.25;;
35981;SDS011;22058;0.000;0.000;2023-07-22T12:50:50;3.05;;;2.85;;
35981;SDS011;22058;0.000;0.000;2023-07-22T12:53:17;3.10;;;2.90;;
35981;SDS011;22058;0.000;0.000;2023-07-22T12:55:43;4.15;;;3.35;;
35981;SDS011;22058;0.000;0.000;2023-07-22T12:58:09;3.03;;;2.83;;
35981;SDS011;22058;0.000;0.000;2023-07-22T13:00:35;3.05;;;2.88;;
35981;SDS011;22058;0.000;0.000;2023-07-22T13:03:01;4.22;;;3.92;;
35981;SDS011;22058;0.000;0.000;2023-07-22T13:05:27;3.45;;;3.25;;
35981;SDS011;22058;0.000;0.000;2023-07-22T13:07:53;3.10;;;2.90;;
35981;SDS011;22058;0.000;0.000;2023-07-22T13:10:19;3.50;;;3.20;;
35981;SDS011;22058;0.000;0.000;2023-07-22T13:12:47;3.92;;;3.63;;
35981;SDS011;22058;0.000;0.000;2023-07-22T13:15:13;3.20;;;3.00;;
35981;SDS011;22058;0.000;0.000;2023-07-22T13:17:39;3.35;;;3.15;;
35981;SDS011;22058;0.000;0.000;2023-07-22T13:20:05;3.30;;;3.10;;
35981;SDS011;22058;0.000;0.000;2023-07-22T13:22:32;3.38;;;3.17;;
35981;SDS011;22058;0.000;0.000;2023-07-22T13:24:58;4.32;;;4.03;;
35981;SDS011;22058;0.000;0.000;2023-07-22T13:27:24;3.40;;;3.20;;
35981;SDS011;22058;0.000;0.000;2023-07-22T13:29:50;3.28;;;3.05;;
35981;SDS011;22058;0.000;0.000;2023-07-22T13:32:17;3.75;;;3.50;;
35981;SDS011;22058;0.000;0.000;2023-07-22T13:34:43;3.30;;;3.10;;
35981;SDS011;22058;0.000;0.000;2023-07-22T13:37:09;3.22;;;3.03;;
35981;SDS011;22058;0.000;0.000;2023-07-22T13:39:35;3.50;;;3.30;;
35981;SDS011;22058;0.000;0.000;2023-07-22T13:42:01;3.30;;;3.10;;
35981;SDS011;22058;0.000;0.000;2023-07-22T13:44:27;3.80;;;3.50;;
35981;SDS011;22058;0.000;0.000;2023-07-22T13:46:53;3.50;;;3.30;;
35981;SDS011;22058;0.000;0.000;2023-07-22T13:49:19;3.13;;;2.92;;
35981;SDS011;22058;0.000;0.000;2023-07-22T13:51:45;2.78;;;2.67;;
35981;SDS011;22058;0.000;0.000;2023-07-22T13:54:11;5.55;;;3.22;;
35981;SDS011;22058;0.000;0.000;2023-07-22T13:56:38;3.20;;;3.00;;
35981;SDS011;22058;0.000;0.000;2023-07-22T13:59:04;2.97;;;2.85;;
35981;SDS011;22058;0.000;0.000;2023-07-22T14:01:30;3.08;;;2.88;;
35981;SDS011;22058;0.000;0.000;2023-07-22T14:03:56;3.97;;;3.70;;
35981;SDS011;22058;0.000;0.000;2023-07-22T14:06:22;4.15;;;2.95;;
35981;SDS011;22058;0.000;0.000;2023-07-22T14:08:49;3.00;;;2.80;;
35981;SDS011;22058;0.000;0.000;2023-07-22T14:11:15;3.35;;;3.15;;
35981;SDS011;22058;0.000;0.000;2023-07-22T14:13:41;3.42;;;3.22;;
35981;SDS011;22058;0.000;0.000;2023-07-22T14:16:07;3.55;;;3.35;;
35981;SDS011;22058;0.000;0.000;2023-07-22T14:18:33;4.22;;;3.92;;
35981;SDS011;22058;0.000;0.000;2023-07-22T14:20:59;3.70;;;3.50;;
35981;SDS011;22058;0.000;0.000;2023-07-22T14:23:25;3.70;;;3.50;;
35981;SDS011;22058;0.000;0.000;2023-07-22T14:25:51;3.85;;;2.97;;
35981;SDS011;22058;0.000;0.000;2023-07-22T14:28:17;2.60;;;2.50;;
35981;SDS011;22058;0.000;0.000;2023-07-22T14:30:44;3.38;;;3.17;;
35981;SDS011;22058;0.000;0.000;2023-07-22T14:33:10;3.85;;;3.65;;
35981;SDS011;22058;0.000;0.000;2023-07-22T14:35:37;3.20;;;3.00;;
35981;SDS011;22058;0.000;0.000;2023-07-22T14:38:03;3.20;;;2.90;;
35981;SDS011;22058;0.000;0.000;2023-07-22T14:40:29;3.35;;;3.15;;
35981;SDS011;22058;0.000;0.000;2023-07-22T14:42:55;3.08;;;2.88;;
35981;SDS011;22058;0.000;0.000;2023-07-22T14:45:21;3.55;;;3.35;;
35981;SDS011;22058;0.000;0.000;2023-07-22T14:47:47;3.38;;;3.17;;
35981;SDS011;22058;0.000;0.000;2023-07-22T14:50:13;2.90;;;2.80;;
35981;SDS011;22058;0.000;0.000;2023-07-22T14:52:40;3.50;;;3.30;;
35981;SDS011;22058;0.000;0.000;2023-07-22T14:55:07;3.53;;;3.33;;
35981;SDS011;22058;0.000;0.000;2023-07-22T14:57:34;3.50;;;3.30;;
35981;SDS011;22058;0.000;0.000;2023-07-22T15:00:00;3.17;;;2.97;;
35981;SDS011;22058;0.000;0.000;2023-07-22T15:02:26;3.15;;;2.95;;
35981;SDS011;22058;0.000;0.000;2023-07-22T15:04:52;3.13;;;2.92;;
35981;SDS011;22058;0.000;0.000;2023-07-22T15:07:18;3.10;;;2.90;;